createdAt,value
2018-10-02T00:00:27.257Z,21.75
2018-10-02T00:01:27.250Z,21.77
2018-10-02T00:02:27.237Z,21.72
2018-10-02T00:03:27.237Z,21.77
2018-10-02T00:04:27.222Z,21.66
2018-10-02T00:05:27.212Z,21.70
2018-10-02T00:06:27.205Z,21.70
2018-10-02T00:07:27.192Z,21.65
2018-10-02T00:08:27.194Z,21.66
2018-10-02T00:09:27.175Z,21.63
2018-10-02T00:10:27.172Z,21.66
2018-10-02T00:11:27.160Z,21.68
2018-10-02T00:12:27.153Z,21.68
2018-10-02T00:13:27.144Z,21.65
2018-10-02T00:14:27.136Z,21.65
2018-10-02T00:15:27.125Z,21.65
2018-10-02T00:16:27.120Z,21.68
2018-10-02T00:17:27.108Z,21.63
2018-10-02T00:18:27.098Z,21.68
2018-10-02T00:19:27.088Z,21.68
2018-10-02T00:20:27.082Z,21.60
2018-10-02T00:21:27.076Z,21.60
2018-10-02T00:22:27.067Z,21.65
2018-10-02T00:23:27.056Z,21.72
2018-10-02T00:24:27.045Z,21.65
2018-10-02T00:25:27.035Z,21.59
2018-10-02T00:26:27.030Z,21.62
2018-10-02T00:27:27.019Z,21.63
2018-10-02T00:28:27.019Z,21.62
2018-10-02T00:29:26.995Z,21.66
2018-10-02T00:30:26.998Z,21.66
2018-10-02T00:31:27.044Z,21.66
2018-10-02T00:32:27.093Z,21.65
2018-10-02T00:33:26.965Z,21.72
2018-10-02T00:34:26.956Z,21.60
2018-10-02T00:35:26.949Z,21.70
2018-10-02T00:36:26.939Z,21.58
2018-10-02T00:37:26.934Z,21.66
2018-10-02T00:38:26.921Z,21.65
2018-10-02T00:39:26.918Z,21.65
2018-10-02T00:40:26.905Z,21.60
2018-10-02T00:41:26.895Z,21.65
2018-10-02T00:42:26.885Z,21.62
2018-10-02T00:43:26.894Z,21.59
2018-10-02T00:44:26.872Z,21.62
2018-10-02T00:45:26.861Z,21.68
2018-10-02T00:46:26.849Z,21.62
2018-10-02T00:47:26.844Z,21.66
2018-10-02T00:48:26.833Z,21.63
2018-10-02T00:49:26.824Z,21.63
2018-10-02T00:50:26.814Z,21.63
2018-10-02T00:51:26.805Z,21.62
2018-10-02T00:52:26.798Z,21.68
2018-10-02T00:53:26.796Z,21.60
2018-10-02T00:54:26.780Z,21.63
2018-10-02T00:55:26.772Z,21.60
2018-10-02T00:56:26.762Z,21.53
2018-10-02T00:57:26.748Z,21.65
2018-10-02T00:58:26.755Z,21.51
2018-10-02T00:59:26.734Z,21.53
2018-10-02T01:00:26.727Z,21.56
2018-10-02T01:01:26.717Z,21.50
2018-10-02T01:02:26.710Z,21.53
2018-10-02T01:03:26.701Z,21.62
2018-10-02T01:04:26.694Z,21.60
2018-10-02T01:05:26.682Z,21.53
2018-10-02T01:06:26.674Z,21.56
2018-10-02T01:07:26.666Z,21.59
2018-10-02T01:08:26.653Z,21.53
2018-10-02T01:09:26.647Z,21.59
2018-10-02T01:10:26.636Z,21.63
2018-10-02T01:11:26.632Z,21.65
2018-10-02T01:12:26.622Z,21.65
2018-10-02T01:13:26.610Z,21.60
2018-10-02T01:14:26.600Z,21.54
2018-10-02T01:15:26.595Z,21.59
2018-10-02T01:16:26.587Z,21.53
2018-10-02T01:17:26.578Z,21.56
2018-10-02T01:18:26.567Z,21.56
2018-10-02T01:19:26.557Z,21.63
2018-10-02T01:20:26.549Z,21.48
2018-10-02T01:21:26.552Z,21.62
2018-10-02T01:22:26.532Z,21.60
2018-10-02T01:23:26.523Z,21.60
2018-10-02T01:24:26.518Z,21.56
2018-10-02T01:25:26.504Z,21.51
2018-10-02T01:26:26.497Z,21.53
2018-10-02T01:27:26.487Z,21.50
2018-10-02T01:28:26.478Z,21.56
2018-10-02T01:29:26.470Z,21.59
2018-10-02T01:30:26.462Z,21.62
2018-10-02T01:31:26.449Z,21.51
2018-10-02T01:32:26.442Z,21.51
2018-10-02T01:33:26.431Z,21.51
2018-10-02T01:34:26.424Z,21.60
2018-10-02T01:35:26.414Z,21.50
2018-10-02T01:36:26.405Z,21.58
2018-10-02T01:37:26.398Z,21.59
2018-10-02T01:38:26.390Z,21.50
2018-10-02T01:39:26.379Z,21.59
2018-10-02T01:40:26.372Z,21.56
2018-10-02T01:41:26.360Z,21.51
2018-10-02T01:42:26.357Z,21.50
2018-10-02T01:43:26.343Z,21.50
2018-10-02T01:44:26.335Z,21.54
2018-10-02T01:45:26.326Z,21.53
2018-10-02T01:46:26.325Z,21.56
2018-10-02T01:47:26.308Z,21.51
2018-10-02T01:48:26.296Z,21.56
2018-10-02T01:49:26.290Z,21.53
2018-10-02T01:50:26.282Z,21.58
2018-10-02T01:51:26.274Z,21.53
2018-10-02T01:52:26.266Z,21.56
2018-10-02T01:53:26.254Z,21.53
2018-10-02T01:54:26.241Z,21.53
2018-10-02T01:55:26.241Z,21.54
2018-10-02T01:56:26.231Z,21.53
2018-10-02T01:57:26.219Z,21.53
2018-10-02T01:58:26.209Z,21.60
2018-10-02T01:59:26.202Z,21.54
2018-10-02T02:00:26.193Z,21.53
2018-10-02T02:01:26.188Z,21.51
2018-10-02T02:02:26.177Z,21.50
2018-10-02T02:03:26.168Z,21.53
2018-10-02T02:04:26.158Z,21.51
2018-10-02T02:05:26.152Z,21.56
2018-10-02T02:06:26.146Z,21.51
2018-10-02T02:07:26.142Z,21.50
2018-10-02T02:08:26.130Z,21.54
2018-10-02T02:09:26.111Z,21.56
2018-10-02T02:10:26.106Z,21.54
2018-10-02T02:11:26.094Z,21.54
2018-10-02T02:12:26.085Z,21.53
2018-10-02T02:13:26.080Z,21.50
2018-10-02T02:14:26.067Z,21.53
2018-10-02T02:15:26.060Z,21.56
2018-10-02T02:16:26.059Z,21.53
2018-10-02T02:17:26.039Z,21.54
2018-10-02T02:18:26.034Z,21.59
2018-10-02T02:19:26.042Z,21.53
2018-10-02T02:20:26.017Z,21.50
2018-10-02T02:21:26.002Z,21.59
2018-10-02T02:22:25.997Z,21.54
2018-10-02T02:23:25.988Z,21.50
2018-10-02T02:24:25.981Z,21.54
2018-10-02T02:25:25.971Z,21.56
2018-10-02T02:26:25.954Z,21.51
2018-10-02T02:27:25.948Z,21.54
2018-10-02T02:28:25.939Z,21.59
2018-10-02T02:29:25.937Z,21.56
2018-10-02T02:30:25.925Z,21.53
2018-10-02T02:31:25.917Z,21.45
2018-10-02T02:32:25.903Z,21.56
2018-10-02T02:33:25.898Z,21.58
2018-10-02T02:34:25.889Z,21.54
2018-10-02T02:35:25.885Z,21.47
2018-10-02T02:36:25.871Z,21.59
2018-10-02T02:37:25.863Z,21.51
2018-10-02T02:38:25.850Z,21.56
2018-10-02T02:39:25.839Z,21.50
2018-10-02T02:40:25.838Z,21.53
2018-10-02T02:41:25.826Z,21.50
2018-10-02T02:42:25.816Z,21.54
2018-10-02T02:43:25.808Z,21.51
2018-10-02T02:44:25.800Z,21.54
2018-10-02T02:45:25.786Z,21.56
2018-10-02T02:46:25.780Z,21.54
2018-10-02T02:47:25.772Z,21.53
2018-10-02T02:48:25.794Z,21.51
2018-10-02T02:49:25.754Z,21.51
2018-10-02T02:50:25.745Z,21.53
2018-10-02T02:51:25.766Z,21.51
2018-10-02T02:52:25.775Z,21.53
2018-10-02T02:53:25.725Z,21.53
2018-10-02T02:54:25.715Z,21.58
2018-10-02T02:55:25.700Z,21.50
2018-10-02T02:56:25.691Z,21.54
2018-10-02T02:57:25.682Z,21.51
2018-10-02T02:58:25.676Z,21.47
2018-10-02T02:59:25.726Z,21.54
2018-10-02T03:00:25.653Z,21.50
2018-10-02T03:01:25.646Z,21.41
2018-10-02T03:02:25.639Z,21.40
2018-10-02T03:03:25.630Z,21.47
2018-10-02T03:04:25.640Z,21.40
2018-10-02T03:05:25.612Z,21.35
2018-10-02T03:06:25.600Z,21.43
2018-10-02T03:07:25.596Z,21.40
2018-10-02T03:08:25.587Z,21.47
2018-10-02T03:09:25.578Z,21.43
2018-10-02T03:10:25.567Z,21.43
2018-10-02T03:11:25.558Z,21.43
2018-10-02T03:12:25.543Z,21.43
2018-10-02T03:13:25.538Z,21.38
2018-10-02T03:14:25.532Z,21.50
2018-10-02T03:15:25.525Z,21.41
2018-10-02T03:16:25.513Z,21.45
2018-10-02T03:17:25.502Z,21.45
2018-10-02T03:18:25.501Z,21.40
2018-10-02T03:19:25.488Z,21.38
2018-10-02T03:20:25.476Z,21.41
2018-10-02T03:21:25.469Z,21.40
2018-10-02T03:22:25.458Z,21.38
2018-10-02T03:23:25.452Z,21.44
2018-10-02T03:24:25.461Z,21.41
2018-10-02T03:25:25.432Z,21.40
2018-10-02T03:26:25.436Z,21.47
2018-10-02T03:27:25.415Z,21.41
2018-10-02T03:28:25.405Z,21.40
2018-10-02T03:29:25.400Z,21.51
2018-10-02T03:30:25.397Z,21.47
2018-10-02T03:31:25.420Z,21.50
2018-10-02T03:32:25.369Z,21.47
2018-10-02T03:33:25.360Z,21.41
2018-10-02T03:34:25.350Z,21.50
2018-10-02T03:35:25.337Z,21.44
2018-10-02T03:36:25.334Z,21.48
2018-10-02T03:37:25.326Z,21.43
2018-10-02T03:38:25.321Z,21.41
2018-10-02T03:39:25.408Z,21.48
2018-10-02T03:40:25.297Z,21.45
2018-10-02T03:41:25.288Z,21.48
2018-10-02T03:42:25.280Z,21.51
2018-10-02T03:43:25.277Z,21.53
2018-10-02T03:44:25.266Z,21.41
2018-10-02T03:45:25.247Z,21.38
2018-10-02T03:46:25.250Z,21.20
2018-10-02T03:47:25.235Z,20.98
2018-10-02T03:48:25.226Z,20.70
2018-10-02T03:49:25.215Z,20.44
2018-10-02T03:50:25.213Z,20.17
2018-10-02T03:51:25.200Z,19.87
2018-10-02T03:52:25.189Z,19.64
2018-10-02T03:53:25.179Z,19.64
2018-10-02T03:54:25.175Z,19.62
2018-10-02T03:55:25.159Z,19.63
2018-10-02T03:56:25.153Z,19.75
2018-10-02T03:57:25.150Z,19.82
2018-10-02T03:58:25.136Z,19.93
2018-10-02T03:59:25.133Z,19.96
2018-10-02T04:00:25.117Z,20.07
2018-10-02T04:01:25.104Z,20.18
2018-10-02T04:02:25.092Z,20.21
2018-10-02T04:03:25.114Z,20.39
2018-10-02T04:04:25.074Z,20.34
2018-10-02T04:05:25.060Z,20.56
2018-10-02T04:06:25.053Z,20.55
2018-10-02T04:07:25.048Z,20.63
2018-10-02T04:08:25.038Z,20.67
2018-10-02T04:09:25.027Z,20.71
2018-10-02T04:10:25.018Z,20.77
2018-10-02T04:11:25.009Z,20.82
2018-10-02T04:12:25.001Z,20.80
2018-10-02T04:13:24.991Z,20.95
2018-10-02T04:14:24.982Z,20.96
2018-10-02T04:15:24.976Z,20.98
2018-10-02T04:16:24.961Z,21.05
2018-10-02T04:17:24.952Z,21.01
2018-10-02T04:18:24.947Z,21.14
2018-10-02T04:19:24.936Z,21.14
2018-10-02T04:20:24.924Z,21.19
2018-10-02T04:21:24.915Z,21.19
2018-10-02T04:22:24.907Z,21.23
2018-10-02T04:23:24.907Z,21.29
2018-10-02T04:24:24.892Z,21.32
2018-10-02T04:25:24.881Z,21.30
2018-10-02T04:26:24.869Z,21.30
2018-10-02T04:27:24.860Z,21.35
2018-10-02T04:28:24.931Z,21.40
2018-10-02T04:29:24.839Z,21.48
2018-10-02T04:30:24.830Z,21.37
2018-10-02T04:31:24.826Z,21.40
2018-10-02T04:32:24.813Z,21.44
2018-10-02T04:33:24.809Z,21.50
2018-10-02T04:34:24.797Z,21.51
2018-10-02T04:35:24.788Z,21.43
2018-10-02T04:36:24.774Z,21.56
2018-10-02T04:37:24.766Z,21.51
2018-10-02T04:38:24.759Z,21.59
2018-10-02T04:39:24.812Z,21.53
2018-10-02T04:40:24.745Z,21.56
2018-10-02T04:41:24.729Z,21.51
2018-10-02T04:42:24.721Z,21.51
2018-10-02T04:43:24.714Z,21.51
2018-10-02T04:44:24.707Z,21.50
2018-10-02T04:45:24.696Z,21.53
2018-10-02T04:46:24.688Z,21.51
2018-10-02T04:47:24.687Z,21.60
2018-10-02T04:48:24.675Z,21.62
2018-10-02T04:49:24.659Z,21.62
2018-10-02T04:50:24.651Z,21.65
2018-10-02T04:51:24.641Z,21.68
2018-10-02T04:52:24.632Z,21.62
2018-10-02T04:53:24.622Z,21.65
2018-10-02T04:54:24.614Z,21.59
2018-10-02T04:55:24.613Z,21.58
2018-10-02T04:56:24.675Z,21.66
2018-10-02T04:57:24.589Z,21.59
2018-10-02T04:58:24.574Z,21.65
2018-10-02T04:59:24.570Z,21.68
2018-10-02T05:00:24.563Z,21.68
2018-10-02T05:01:24.550Z,21.63
2018-10-02T05:02:24.573Z,21.62
2018-10-02T05:03:24.532Z,21.62
2018-10-02T05:04:24.524Z,21.62
2018-10-02T05:05:24.514Z,21.58
2018-10-02T05:06:24.517Z,21.68
2018-10-02T05:07:24.501Z,21.63
2018-10-02T05:08:24.583Z,21.63
2018-10-02T05:09:24.474Z,21.60
2018-10-02T05:10:24.477Z,21.69
2018-10-02T05:11:24.464Z,21.62
2018-10-02T05:12:24.453Z,21.66
2018-10-02T05:13:24.446Z,21.69
2018-10-02T05:14:24.435Z,21.65
2018-10-02T05:15:24.426Z,21.65
2018-10-02T05:16:24.416Z,21.65
2018-10-02T05:17:24.407Z,21.62
2018-10-02T05:18:24.401Z,21.63
2018-10-02T05:19:24.387Z,21.60
2018-10-02T05:20:24.379Z,21.51
2018-10-02T05:21:24.370Z,21.60
2018-10-02T05:22:24.371Z,21.65
2018-10-02T05:23:24.354Z,21.62
2018-10-02T05:24:24.344Z,21.53
2018-10-02T05:25:24.334Z,21.63
2018-10-02T05:26:24.326Z,21.69
2018-10-02T05:27:24.429Z,21.63
2018-10-02T05:28:24.309Z,21.65
2018-10-02T05:29:24.298Z,21.58
2018-10-02T05:30:24.292Z,21.62
2018-10-02T05:31:24.275Z,21.65
2018-10-02T05:32:24.279Z,21.66
2018-10-02T05:33:24.268Z,21.63
2018-10-02T05:34:24.254Z,21.62
2018-10-02T05:35:24.288Z,21.62
2018-10-02T05:36:24.237Z,21.65
2018-10-02T05:37:24.227Z,21.62
2018-10-02T05:38:24.221Z,21.70
2018-10-02T05:39:24.223Z,21.69
2018-10-02T05:40:24.207Z,21.60
2018-10-02T05:41:24.193Z,21.63
2018-10-02T05:42:24.184Z,21.60
2018-10-02T05:43:24.172Z,21.65
2018-10-02T05:44:24.165Z,21.62
2018-10-02T05:45:24.158Z,21.59
2018-10-02T05:46:24.146Z,21.65
2018-10-02T05:47:24.139Z,21.63
2018-10-02T05:48:24.128Z,21.65
2018-10-02T05:49:24.120Z,21.65
2018-10-02T05:50:24.107Z,21.66
2018-10-02T05:51:24.102Z,21.65
2018-10-02T05:52:24.095Z,21.78
2018-10-02T05:53:24.084Z,21.65
2018-10-02T05:54:24.076Z,21.65
2018-10-02T05:55:24.073Z,21.65
2018-10-02T05:56:24.059Z,21.81
2018-10-02T05:57:24.047Z,21.69
2018-10-02T05:58:24.085Z,21.65
2018-10-02T05:59:24.031Z,21.69
2018-10-02T06:00:24.023Z,21.69
2018-10-02T06:01:24.014Z,21.65
2018-10-02T06:02:24.003Z,21.68
2018-10-02T06:03:23.987Z,21.70
2018-10-02T06:04:23.980Z,21.69
2018-10-02T06:05:23.975Z,21.68
2018-10-02T06:06:23.977Z,21.69
2018-10-02T06:07:23.961Z,21.75
2018-10-02T06:08:23.952Z,21.72
2018-10-02T06:09:23.940Z,21.66
2018-10-02T06:10:23.932Z,21.65
2018-10-02T06:11:23.924Z,21.62
2018-10-02T06:12:23.919Z,21.68
2018-10-02T06:13:23.912Z,21.70
2018-10-02T06:14:23.892Z,21.65
2018-10-02T06:15:23.887Z,21.69
2018-10-02T06:16:23.875Z,21.72
2018-10-02T06:17:23.875Z,21.74
2018-10-02T06:18:23.860Z,21.65
2018-10-02T06:19:23.851Z,21.65
2018-10-02T06:20:23.845Z,21.70
2018-10-02T06:21:23.832Z,21.66
2018-10-02T06:22:23.831Z,21.66
2018-10-02T06:23:23.815Z,21.66
2018-10-02T06:24:23.805Z,21.72
2018-10-02T06:25:23.796Z,21.68
2018-10-02T06:26:23.788Z,21.68
2018-10-02T06:27:23.778Z,21.65
2018-10-02T06:28:23.780Z,21.65
2018-10-02T06:29:23.761Z,21.69
2018-10-02T06:30:23.770Z,21.69
2018-10-02T06:31:23.747Z,21.65
2018-10-02T06:32:23.735Z,21.66
2018-10-02T06:33:23.727Z,21.62
2018-10-02T06:34:23.717Z,21.63
2018-10-02T06:35:23.712Z,21.66
2018-10-02T06:36:23.699Z,21.62
2018-10-02T06:37:23.688Z,21.65
2018-10-02T06:38:23.799Z,21.62
2018-10-02T06:39:23.680Z,21.69
2018-10-02T06:40:23.673Z,21.63
2018-10-02T06:41:23.654Z,21.72
2018-10-02T06:42:23.643Z,21.63
2018-10-02T06:43:23.651Z,21.63
2018-10-02T06:44:23.642Z,21.63
2018-10-02T06:45:23.620Z,21.62
2018-10-02T06:46:23.605Z,21.63
2018-10-02T06:47:23.598Z,21.66
2018-10-02T06:48:23.584Z,21.68
2018-10-02T06:49:23.582Z,21.66
2018-10-02T06:50:23.577Z,21.72
2018-10-02T06:51:23.706Z,21.72
2018-10-02T06:52:23.844Z,21.75
2018-10-02T06:53:23.547Z,21.68
2018-10-02T06:54:23.539Z,21.70
2018-10-02T06:55:23.534Z,21.81
2018-10-02T06:56:23.528Z,21.66
2018-10-02T06:57:23.512Z,21.66
2018-10-02T06:58:23.498Z,21.70
2018-10-02T06:59:23.489Z,21.70
2018-10-02T07:00:23.509Z,21.69
2018-10-02T07:01:23.476Z,21.69
2018-10-02T07:02:23.499Z,21.69
2018-10-02T07:03:23.459Z,21.66
2018-10-02T07:04:23.449Z,21.72
2018-10-02T07:05:23.444Z,21.74
2018-10-02T07:06:23.437Z,21.80
2018-10-02T07:07:23.426Z,21.72
2018-10-02T07:08:23.423Z,21.83
2018-10-02T07:09:23.408Z,21.77
2018-10-02T07:10:23.402Z,21.74
2018-10-02T07:11:23.389Z,21.80
2018-10-02T07:12:23.389Z,21.68
2018-10-02T07:13:23.363Z,21.72
2018-10-02T07:14:23.364Z,21.74
2018-10-02T07:15:23.348Z,21.72
2018-10-02T07:16:23.342Z,21.77
2018-10-02T07:17:23.351Z,21.78
2018-10-02T07:18:23.330Z,21.78
2018-10-02T07:19:23.318Z,21.69
2018-10-02T07:20:23.310Z,21.70
2018-10-02T07:21:23.293Z,21.72
2018-10-02T07:22:23.293Z,21.72
2018-10-02T07:23:23.281Z,21.77
2018-10-02T07:24:23.272Z,21.78
2018-10-02T07:25:23.264Z,21.81
2018-10-02T07:26:23.307Z,21.78
2018-10-02T07:27:23.414Z,21.72
2018-10-02T07:28:23.321Z,21.77
2018-10-02T07:29:23.230Z,21.80
2018-10-02T07:30:23.263Z,21.78
2018-10-02T07:31:23.208Z,21.77
2018-10-02T07:32:23.236Z,21.78
2018-10-02T07:33:23.194Z,21.78
2018-10-02T07:34:23.182Z,21.77
2018-10-02T07:35:23.174Z,21.74
2018-10-02T07:36:23.176Z,21.83
2018-10-02T07:37:23.156Z,21.77
2018-10-02T07:38:23.178Z,21.74
2018-10-02T07:39:23.147Z,21.80
2018-10-02T07:40:23.133Z,21.74
2018-10-02T07:41:23.140Z,21.78
2018-10-02T07:42:23.140Z,21.77
2018-10-02T07:43:23.099Z,21.81
2018-10-02T07:44:23.104Z,21.75
2018-10-02T07:45:23.085Z,21.75
2018-10-02T07:46:23.076Z,21.74
2018-10-02T07:47:23.106Z,21.77
2018-10-02T07:48:23.084Z,21.75
2018-10-02T07:49:23.050Z,21.81
2018-10-02T07:50:23.052Z,21.77
2018-10-02T07:51:23.038Z,21.74
2018-10-02T07:52:23.024Z,21.69
2018-10-02T07:53:23.053Z,21.81
2018-10-02T07:54:23.000Z,21.75
2018-10-02T07:55:23.052Z,21.68
2018-10-02T07:56:22.997Z,21.72
2018-10-02T07:57:22.978Z,21.77
2018-10-02T07:58:22.969Z,21.75
2018-10-02T07:59:22.985Z,21.80
2018-10-02T08:00:22.959Z,21.75
2018-10-02T08:01:22.948Z,21.77
2018-10-02T08:02:22.961Z,21.80
2018-10-02T08:03:22.929Z,21.74
2018-10-02T08:04:22.919Z,21.77
2018-10-02T08:05:22.948Z,21.75
2018-10-02T08:06:22.978Z,21.74
2018-10-02T08:07:22.889Z,21.78
2018-10-02T08:08:22.884Z,21.80
2018-10-02T08:09:22.872Z,21.75
2018-10-02T08:10:22.862Z,21.66
2018-10-02T08:11:22.917Z,21.74
2018-10-02T08:12:23.064Z,21.70
2018-10-02T08:13:22.885Z,21.75
2018-10-02T08:14:22.846Z,21.75
2018-10-02T08:15:22.827Z,21.81
2018-10-02T08:16:22.807Z,21.74
2018-10-02T08:17:22.853Z,21.78
2018-10-02T08:18:22.789Z,21.83
2018-10-02T08:19:22.793Z,21.77
2018-10-02T08:20:22.815Z,21.74
2018-10-02T08:21:22.764Z,21.72
2018-10-02T08:22:22.758Z,21.74
2018-10-02T08:23:22.798Z,21.75
2018-10-02T08:24:22.742Z,21.77
2018-10-02T08:25:22.727Z,21.72
2018-10-02T08:26:22.752Z,21.74
2018-10-02T08:27:22.736Z,21.75
2018-10-02T08:28:22.704Z,21.78
2018-10-02T08:29:22.765Z,21.78
2018-10-02T08:30:22.745Z,21.78
2018-10-02T08:31:22.675Z,21.80
2018-10-02T08:32:22.667Z,21.80
2018-10-02T08:33:22.657Z,21.77
2018-10-02T08:34:22.651Z,21.80
2018-10-02T08:35:22.683Z,21.81
2018-10-02T08:36:22.738Z,21.80
2018-10-02T08:37:22.614Z,21.75
2018-10-02T08:38:22.637Z,21.80
2018-10-02T08:39:22.611Z,21.77
2018-10-02T08:40:22.595Z,21.80
2018-10-02T08:41:22.586Z,21.80
2018-10-02T08:42:22.577Z,21.77
2018-10-02T08:43:22.584Z,21.77
2018-10-02T08:44:22.580Z,21.77
2018-10-02T08:45:22.549Z,21.80
2018-10-02T08:46:22.546Z,21.80
2018-10-02T08:47:22.535Z,21.70
2018-10-02T08:48:22.550Z,21.78
2018-10-02T08:49:22.513Z,21.72
2018-10-02T08:50:22.518Z,21.72
2018-10-02T08:51:22.502Z,21.72
2018-10-02T08:52:22.490Z,21.81
2018-10-02T08:53:22.493Z,21.81
2018-10-02T08:54:22.471Z,21.74
2018-10-02T08:55:22.463Z,21.81
2018-10-02T08:56:22.463Z,21.80
2018-10-02T08:57:22.448Z,21.78
2018-10-02T08:58:22.437Z,21.75
2018-10-02T08:59:22.424Z,21.77
2018-10-02T09:00:22.415Z,21.78
2018-10-02T09:01:22.410Z,21.80
2018-10-02T09:02:22.433Z,21.80
2018-10-02T09:03:22.387Z,21.77
2018-10-02T09:04:22.379Z,21.77
2018-10-02T09:05:22.372Z,21.78
2018-10-02T09:06:22.397Z,21.83
2018-10-02T09:07:22.388Z,21.77
2018-10-02T09:08:22.375Z,21.78
2018-10-02T09:09:22.357Z,21.81
2018-10-02T09:10:22.329Z,21.77
2018-10-02T09:11:22.325Z,21.78
2018-10-02T09:12:22.344Z,21.80
2018-10-02T09:13:22.303Z,21.80
2018-10-02T09:14:22.293Z,21.77
2018-10-02T09:15:22.350Z,21.80
2018-10-02T09:16:22.325Z,21.75
2018-10-02T09:17:22.268Z,21.78
2018-10-02T09:18:22.263Z,21.78
2018-10-02T09:19:22.253Z,21.74
2018-10-02T09:20:22.240Z,21.75
2018-10-02T09:21:22.233Z,21.74
2018-10-02T09:22:22.219Z,21.85
2018-10-02T09:23:22.214Z,21.72
2018-10-02T09:24:22.208Z,21.75
2018-10-02T09:25:22.194Z,21.77
2018-10-02T09:26:22.188Z,21.81
2018-10-02T09:27:22.210Z,21.83
2018-10-02T09:28:22.212Z,21.80
2018-10-02T09:29:22.162Z,21.75
2018-10-02T09:30:22.201Z,21.77
2018-10-02T09:31:22.141Z,21.77
2018-10-02T09:32:22.130Z,21.75
2018-10-02T09:33:22.190Z,21.85
2018-10-02T09:34:22.114Z,21.77
2018-10-02T09:35:22.105Z,21.75
2018-10-02T09:36:22.128Z,21.81
2018-10-02T09:37:22.115Z,21.80
2018-10-02T09:38:22.074Z,21.74
2018-10-02T09:39:22.071Z,21.80
2018-10-02T09:40:22.068Z,21.72
2018-10-02T09:41:22.058Z,21.80
2018-10-02T09:42:22.039Z,21.84
2018-10-02T09:43:22.100Z,21.83
2018-10-02T09:44:22.025Z,21.80
2018-10-02T09:45:22.041Z,21.74
2018-10-02T09:46:22.008Z,21.77
2018-10-02T09:47:21.999Z,21.77
2018-10-02T09:48:22.018Z,21.83
2018-10-02T09:49:21.985Z,21.81
2018-10-02T09:50:21.986Z,21.84
2018-10-02T09:51:21.976Z,21.83
2018-10-02T09:52:21.958Z,21.80
2018-10-02T09:53:21.945Z,21.77
2018-10-02T09:54:21.990Z,21.78
2018-10-02T09:55:21.926Z,21.75
2018-10-02T09:56:21.975Z,21.72
2018-10-02T09:57:21.910Z,21.83
2018-10-02T09:58:21.911Z,21.77
2018-10-02T09:59:21.891Z,21.80
2018-10-02T10:00:21.909Z,21.80
2018-10-02T10:01:21.869Z,21.83
2018-10-02T10:02:21.870Z,21.80
2018-10-02T10:03:21.860Z,21.78
2018-10-02T10:04:21.912Z,21.80
2018-10-02T10:05:21.844Z,21.78
2018-10-02T10:06:21.835Z,21.77
2018-10-02T10:07:21.827Z,21.83
2018-10-02T10:08:21.813Z,21.80
2018-10-02T10:09:21.804Z,21.78
2018-10-02T10:10:21.809Z,21.80
2018-10-02T10:11:21.788Z,21.80
2018-10-02T10:12:21.777Z,21.77
2018-10-02T10:13:21.765Z,21.77
2018-10-02T10:14:21.763Z,21.80
2018-10-02T10:15:21.754Z,21.84
2018-10-02T10:16:21.791Z,21.72
2018-10-02T10:17:21.791Z,21.80
2018-10-02T10:18:21.724Z,21.77
2018-10-02T10:19:21.716Z,21.80
2018-10-02T10:20:21.707Z,21.85
2018-10-02T10:21:21.699Z,21.80
2018-10-02T10:22:21.712Z,21.75
2018-10-02T10:23:21.682Z,21.75
2018-10-02T10:24:21.687Z,21.84
2018-10-02T10:25:21.660Z,21.83
2018-10-02T10:26:21.697Z,21.81
2018-10-02T10:27:21.639Z,21.80
2018-10-02T10:28:21.643Z,21.72
2018-10-02T10:29:21.625Z,21.75
2018-10-02T10:30:21.609Z,21.75
2018-10-02T10:31:21.607Z,21.75
2018-10-02T10:32:21.598Z,21.74
2018-10-02T10:33:21.637Z,21.77
2018-10-02T10:34:21.629Z,21.72
2018-10-02T10:35:21.580Z,21.74
2018-10-02T10:36:21.566Z,21.75
2018-10-02T10:37:21.552Z,21.78
2018-10-02T10:38:21.540Z,21.72
2018-10-02T10:39:21.537Z,21.78
2018-10-02T10:40:21.573Z,21.83
2018-10-02T10:41:21.538Z,21.80
2018-10-02T10:42:21.510Z,21.77
2018-10-02T10:43:21.501Z,21.83
2018-10-02T10:44:21.493Z,21.77
2018-10-02T10:45:21.481Z,21.81
2018-10-02T10:46:21.524Z,21.77
2018-10-02T10:47:21.471Z,21.74
2018-10-02T10:48:21.458Z,21.80
2018-10-02T10:49:21.445Z,21.80
2018-10-02T10:50:21.439Z,21.78
2018-10-02T10:51:21.433Z,21.77
2018-10-02T10:52:21.427Z,21.74
2018-10-02T10:53:21.413Z,21.77
2018-10-02T10:54:21.403Z,21.77
2018-10-02T10:55:21.396Z,21.78
2018-10-02T10:56:21.442Z,21.83
2018-10-02T10:57:21.377Z,21.72
2018-10-02T10:58:21.410Z,21.81
2018-10-02T10:59:21.356Z,21.80
2018-10-02T11:00:21.352Z,21.81
2018-10-02T11:01:21.341Z,21.75
2018-10-02T11:02:21.335Z,21.74
2018-10-02T11:03:21.324Z,21.77
2018-10-02T11:04:21.387Z,21.75
2018-10-02T11:05:21.306Z,21.75
2018-10-02T11:06:21.298Z,21.80
2018-10-02T11:07:21.286Z,21.77
2018-10-02T11:08:21.289Z,21.77
2018-10-02T11:09:21.327Z,21.75
2018-10-02T11:10:21.264Z,21.77
2018-10-02T11:11:21.251Z,21.72
2018-10-02T11:12:21.244Z,21.74
2018-10-02T11:13:21.233Z,21.77
2018-10-02T11:14:21.224Z,21.77
2018-10-02T11:15:21.280Z,21.72
2018-10-02T11:16:21.206Z,21.78
2018-10-02T11:17:21.196Z,21.77
2018-10-02T11:18:21.190Z,21.77
2018-10-02T11:19:21.232Z,21.78
2018-10-02T11:20:21.175Z,21.80
2018-10-02T11:21:21.162Z,21.78
2018-10-02T11:22:21.151Z,21.80
2018-10-02T11:23:21.148Z,21.70
2018-10-02T11:24:21.137Z,21.81
2018-10-02T11:25:21.227Z,21.75
2018-10-02T11:26:21.117Z,21.84
2018-10-02T11:27:21.128Z,21.78
2018-10-02T11:28:21.099Z,21.80
2018-10-02T11:29:21.091Z,21.75
2018-10-02T11:30:21.101Z,21.83
2018-10-02T11:31:21.140Z,21.74
2018-10-02T11:32:21.063Z,21.75
2018-10-02T11:33:21.055Z,21.80
2018-10-02T11:34:21.051Z,21.80
2018-10-02T11:35:21.092Z,21.77
2018-10-02T11:36:21.028Z,21.85
2018-10-02T11:37:21.076Z,21.80
2018-10-02T11:38:21.014Z,21.70
2018-10-02T11:39:21.000Z,21.77
2018-10-02T11:40:20.995Z,21.81
2018-10-02T11:41:20.985Z,21.81
2018-10-02T11:42:20.977Z,21.80
2018-10-02T11:43:21.040Z,21.77
2018-10-02T11:44:21.027Z,21.78
2018-10-02T11:45:20.948Z,21.77
2018-10-02T11:46:20.941Z,21.74
2018-10-02T11:47:20.929Z,21.77
2018-10-02T11:48:20.921Z,21.77
2018-10-02T11:49:20.953Z,21.78
2018-10-02T11:50:20.904Z,21.77
2018-10-02T11:51:20.899Z,21.80
2018-10-02T11:52:20.888Z,21.80
2018-10-02T11:53:20.880Z,21.74
2018-10-02T11:54:20.869Z,21.81
2018-10-02T11:55:20.913Z,21.77
2018-10-02T11:56:20.856Z,21.83
2018-10-02T11:57:20.889Z,21.72
2018-10-02T11:58:20.832Z,21.77
2018-10-02T11:59:20.826Z,21.80
2018-10-02T12:00:20.857Z,21.80
2018-10-02T12:01:20.899Z,21.77
2018-10-02T12:02:20.842Z,21.80
2018-10-02T12:03:20.828Z,21.80
2018-10-02T12:04:20.781Z,21.74
2018-10-02T12:05:20.772Z,21.83
2018-10-02T12:06:20.765Z,21.81
2018-10-02T12:07:20.754Z,21.80
2018-10-02T12:08:20.742Z,21.77
2018-10-02T12:09:20.735Z,21.77
2018-10-02T12:10:20.727Z,21.78
2018-10-02T12:11:20.738Z,21.77
2018-10-02T12:12:20.709Z,21.78
2018-10-02T12:13:20.755Z,21.78
2018-10-02T12:14:20.939Z,21.80
2018-10-02T12:15:20.746Z,21.80
2018-10-02T12:16:20.668Z,21.72
2018-10-02T12:17:20.669Z,21.74
2018-10-02T12:18:20.656Z,21.77
2018-10-02T12:19:20.702Z,21.75
2018-10-02T12:20:20.638Z,21.83
2018-10-02T12:21:20.635Z,21.83
2018-10-02T12:22:20.621Z,21.80
2018-10-02T12:23:20.612Z,21.75
2018-10-02T12:24:20.603Z,21.81
2018-10-02T12:25:20.594Z,21.75
2018-10-02T12:26:20.586Z,21.75
2018-10-02T12:27:20.578Z,21.74
2018-10-02T12:28:20.575Z,21.81
2018-10-02T12:29:20.560Z,21.70
2018-10-02T12:30:20.548Z,21.75
2018-10-02T12:31:20.617Z,21.75
2018-10-02T12:32:20.535Z,21.72
2018-10-02T12:33:20.521Z,21.74
2018-10-02T12:34:20.515Z,21.75
2018-10-02T12:35:20.509Z,21.78
2018-10-02T12:36:20.494Z,21.77
2018-10-02T12:37:20.485Z,21.75
2018-10-02T12:38:20.475Z,21.78
2018-10-02T12:39:20.508Z,21.72
2018-10-02T12:40:20.461Z,21.77
2018-10-02T12:41:20.451Z,21.74
2018-10-02T12:42:20.450Z,21.75
2018-10-02T12:43:20.434Z,21.74
2018-10-02T12:44:20.425Z,21.78
2018-10-02T12:45:20.416Z,21.75
2018-10-02T12:46:20.458Z,21.75
2018-10-02T12:47:20.397Z,21.77
2018-10-02T12:48:20.400Z,21.77
2018-10-02T12:49:20.379Z,21.77
2018-10-02T12:50:20.368Z,21.80
2018-10-02T12:51:20.415Z,21.78
2018-10-02T12:52:20.371Z,21.80